54NC weather

Dillard Airport
Winfall, North Carolina, United States

Public forecast

Using degrees Fahrenheit for public forecast. Weather courtesy of forecast.io.

Closest aviation weather report (METAR) to Dillard Airport

Closest report is Elizabeth City Regional Airport & Coast Guard Air Station, 11.8 nm (21.9 km) E. Retrieved 2019/10/16 09:54 UTC (35 minutes ago):

KECG 160954Z AUTO 11003KT 10SM FEW044 FEW050 20/17 A2990 RMK AO2 RAB44E52 SLP124 P0000 T02000172

Closest aviation forecast (TAF) to Dillard Airport

Closest forecast is Elizabeth City Regional Airport & Coast Guard Air Station, 11.8 nm (21.9 km) E. Retrieved 2019/10/16 06:33 UTC (4 hours ago):

TAF KECG 160529Z 1606/1706 VRB03KT P6SM BKN250 FM161400 15010KT 6SM -SHRA OVC060 FM161900 18014KT 6SM SHRA OVC010 FM162100 24012G19KT P6SM OVC010 FM170200 29014G23KT P6SM FEW090